Timeline UpdatesTrip UpdatesNews PostsPvt PostsTravel TipsAdmin PostsConv PostsFollowed PostsChat RequestsBlog PostsPNR Posts

Disclaimer
Search
 
 
Thu Apr 17, 2014 09:56:28 ISTHomeTrainsΣChainsAtlasPNRForumGalleryNewsFAQTripsMembersLoginFeedback
No Recent News for this Train
Other Trains in the News **new
Latest...
.
Fri Mar 14, 2014 (07:42PM)
⇐ Return Journey: Train# 16210

16209/Ajmer-Mysore Express

Mar 14 2014 (7:42PM)
Change Departure Station:
Change Arrival Station:
Post a Train Travel TipPost a Train Travel Tip **new
Post a Comment/Question/Picture/VideoPost a Comment/Question/Picture/Video
Pantry/Catering
✓ Pantry Car Avbl
✓ Catering Avbl
RSA - Rake Sharing
16217/16218 Mysore-Shirdi Express
Rake/Coach Composition
LOCO-SLR-GEN-S13-S12-S11-S10-S9-S8-S7-S6-S5-S4-PC-S3-S2-S1-B2-B1-A2-A1-GEN-GEN-SLR; Total 23 coaches
Loco
Ubl wdp4/4b
News    PNR    Forum    Time-Table    Availability    Fare Chart    Map    Arr/Dep History    Trips    Gallery    ΣChains    X/O    Timeline    
Travel Time: 3h 50m    2 halts    Distance: 160 km    Avg Speed: 41 km/hr
Type: Mail/Express
Zone: SWR/South Western
Departs @ 23:05 (Avg 51m late)
Platform# ???
 M    S
Arsikere Junction/ASK 
Arrives @ 02:55 +1 night (Avg 10m late)
Platform# ???
S T    
Yesvantpur Junction/YPR 

2 halts. 25 intermediate Stations between Arsikere Junction and Yesvantpur Junction

Show ALL intermediate Stations  Show Old Time-Table

#CodeStation NameX/OArrivesAvgDepartsAvgHaltPFDay#KmSpeedElevZoneAddress
1AIIAjmer Junction (5)  -05:35+011-1988.275464mNWRPin: 305001, Rajasthan
2BERBeawar (2)  06:17+1006:19+112m--1-1936.068447mNWRBeawar, Rajasthan
3SODSojat Road (2)  07:18+1007:20+112m11-1869.555295mNWRSojat Road, Rajasthan
4MJMarwar Junction (4)X  07:43+907:45+122m61-1848.681267mNWRMarwar Junction, Rajasthan
5FAFalna (2)  08:34+1708:36+182m--1-1782.167282mNWRFalna, Rajasthan
6SOHSirohi Road (2)  09:25+1909:27+202m--1-1727.168369mNWRPindwara, Rajasthan
7ABRAbu Road (3)X  10:06+2310:25+1619m21-1683.238264mNWRSirohi Dist, Rajasthan
8PNUPalanpur Junction (5)X  11:48+211:50+102m11-1630.652216mWRPalanpur, Gujarat
9MSHMahesana Junction (6)X  13:05+513:07+102m21-1565.65395mWRMehsana, Gujarat
10ADIAhmedabad Junction (12)  14:30+014:50+120m41-1492.65451mWRAhmedabad, Gujarat
11NDNadiad Junction (4)  15:41+1515:43+152m--1-1447.16237mWRNadiad, Gujarat
12ANNDAnand Junction (6)X  16:01+1616:03+162m--1-1428.65544mWRAnand, Gujarat
13BRCVadodara Junction (7)X  16:42+1816:52+1810m11-1392.89036mWRVadodara, Gujarat
14BHBharuch Junction (5)X  17:39+2117:41+182m41-1322.34219mWRBharuch, Gujarat
15STSurat (4)X  19:05+219:15+210m21-1263.06119mWRSurat 395001, Gujarat
16BLValsad (3)X  20:23+420:25+82m--1-1194.36615mWRValsad, Gujarat
17VAPIVapi (3)  20:49+1120:51+112m--1-1168.14427mWRVapi, Gujarat
18BSRVasai Road (7)X  23:35+023:40+45m51-1047.0537mWRThane-401202, Maharashtra
19BIRDBhiwandi Road (4)  00:11+400:13+52m--2-1019.72126mCRBhiwandi, Maharashtra
20KYNKalyan Junction (8)  01:05-501:10+55m62-1001.74810mCRKalyan 421301, Maharashtra
21KJTKarjat Junction (4)X  02:08+102:10+62m12-954.93657mCRKarjat, Maharashtra
22LNLLonavala (3)X  02:58+003:00+22m12-926.255623mCRLonavala 410401, Maharashtra
23PUNEPune Junction (6)X  04:10-204:20+810m22-862.651556mCRPune 411001, Maharashtra
24STRSatara (3)  07:10+2207:13+233m12-716.964637mCRSatara, Maharashtra
25KRDKarad (3)  08:08+2208:10+252m12-658.253597mCRDist- Satara., Maharashtra
26SLISangli (3)X  09:27+1109:30+173m32-590.37559mCRSangli, Maharashtra
27MRJMiraj Junction (6)  10:30-110:35+05m12-583.048554mCRMiraj 416410, Maharashtra
28BGMBelgaum (3)  13:25+2413:30+265m22-445.668752mSWRBelgaum 590001, Karnataka
29LDLonda Junction (4)  14:15+4514:17+472m12-394.334643mSWRLonda, Karnataka
30DWRDharwad (4)X  16:20+2116:25+205m22-323.818737mSWRDharwad 580001, Karnataka
31UBLHubli Junction (5)  17:30-217:40+310m12-303.864640mSWRHubli - 580020, Karnataka
32HVRHaveri (3)  18:50+1918:52+212m--2-228.757558mSWRHaveri, Karnataka
33RNRRanibennur (3)X  19:26+2419:28+302m--2-196.138583mSWRRanebennur, Karnataka
34HRRHarihar (3)  20:05+2520:10+325m--2-172.855553mSWRHarihar, Karnataka
35DVGDavangere (2)  20:24+3820:27+373m--2-160.068598mSWRDavanagere, Karnataka
36RRBBirur Junction (3)  22:08+4822:10+492m--2-45.054802mSWRBirur, Karnataka
37ASK»Arsikere Junction (3)»X  23:00+5023:05+515m--20.055816mSWRArsikere, Karnataka
38TTRTiptur (4)X  23:33+4623:35+462m1225.538860mSWRTiptur, Karnataka
39TKTumkur (3)  01:28+2601:30+262m--396.545823mSWRTumkur, Karnataka
40YPR•Yesvantpur Junction (6)•  02:55+1003:00+95m--3160.521919mSWRTel:080-23371444, Karnataka
41MWMMalleswaram (2)  03:08+1403:10+132m--3163.334916mSWRBengaluru, Karnataka
42SBCBangalore City Junction (10)  03:15+1003:45+830m83166.178903mSWRBengaluru-560023, Karnataka
43RMGMRamanagaram (4)04:19-04:20-1m--3210.561692mSWRRamanagaram, Karnataka
44MYAMandya (3)  05:08+2005:10+202m--3259.138672mSWRMandya, Karnataka
45MYSMysore Junction (6)  06:20+10-43303.3-760mSWRTel No 0821-2521751.URL: www.mysorerailwaystation.in, Karnataka
Scroll to Top
Scroll to Bottom